createdAt,value
2023-03-05T00:00:22.911Z,3.4
2023-03-05T00:01:23.921Z,3.3
2023-03-05T00:02:24.978Z,3.1
2023-03-05T00:03:25.897Z,2.8
2023-03-05T00:04:26.932Z,2.8
2023-03-05T00:05:27.904Z,2.9
2023-03-05T00:06:28.898Z,2.9
2023-03-05T00:07:29.845Z,2.9
2023-03-05T00:08:30.867Z,2.9
2023-03-05T00:09:31.863Z,2.8
2023-03-05T00:10:32.951Z,2.9
2023-03-05T00:11:33.875Z,3
2023-03-05T00:12:34.884Z,3.1
2023-03-05T00:13:35.879Z,3.2
2023-03-05T00:14:36.897Z,3.3
2023-03-05T00:15:37.924Z,3.3
2023-03-05T00:16:38.896Z,3.3
2023-03-05T00:17:39.880Z,3.4
2023-03-05T00:18:40.839Z,3.4
2023-03-05T00:19:42.136Z,3.5
2023-03-05T00:20:42.899Z,3.5
2023-03-05T00:21:43.894Z,3.5
2023-03-05T00:22:44.903Z,3.6
2023-03-05T00:23:45.874Z,3.6
2023-03-05T00:24:46.933Z,3.6
2023-03-05T00:25:47.937Z,3.6
2023-03-05T00:26:48.900Z,3.5
2023-03-05T00:27:49.915Z,3.5
2023-03-05T00:28:50.876Z,3.5
2023-03-05T00:29:51.895Z,3.5
2023-03-05T00:30:53.003Z,3.5
2023-03-05T00:31:53.915Z,3.6
2023-03-05T00:32:54.903Z,3.6
2023-03-05T00:33:55.896Z,3.6
2023-03-05T00:34:56.896Z,3.6
2023-03-05T00:35:57.921Z,3.7
2023-03-05T00:36:58.876Z,3.7
2023-03-05T00:37:59.937Z,3.8
2023-03-05T00:39:00.995Z,3.8
2023-03-05T00:40:01.976Z,3.7
2023-03-05T00:41:02.925Z,3.7
2023-03-05T00:42:03.881Z,3.8
2023-03-05T00:43:04.940Z,3.8
2023-03-05T00:44:05.918Z,3.8
2023-03-05T00:45:06.967Z,3.8
2023-03-05T00:46:08.036Z,3.7
2023-03-05T00:47:08.886Z,3.7
2023-03-05T00:48:09.938Z,3.7
2023-03-05T00:49:10.916Z,3.7
2023-03-05T00:50:11.898Z,3.7
2023-03-05T00:51:12.944Z,3.7
2023-03-05T00:52:13.977Z,3.7
2023-03-05T00:53:14.979Z,3.8
2023-03-05T00:54:15.869Z,3.9
2023-03-05T00:55:16.892Z,3.9
2023-03-05T00:56:17.895Z,3.9
2023-03-05T00:57:18.924Z,3.8
2023-03-05T00:58:19.957Z,3.7
2023-03-05T00:59:20.920Z,3.7
2023-03-05T01:00:21.898Z,3.7
2023-03-05T01:01:22.943Z,3.6
2023-03-05T01:02:23.954Z,3.6
2023-03-05T01:03:24.953Z,3.6
2023-03-05T01:04:25.914Z,3.7
2023-03-05T01:05:26.971Z,3.7
2023-03-05T01:06:27.933Z,3.7
2023-03-05T01:07:28.927Z,3.7
2023-03-05T01:08:29.904Z,3.7
2023-03-05T01:09:30.881Z,3.6
2023-03-05T01:10:31.941Z,3.7
2023-03-05T01:11:32.922Z,3.6
2023-03-05T01:12:33.920Z,3.7
2023-03-05T01:13:34.927Z,3.6
2023-03-05T01:14:35.976Z,3.6
2023-03-05T01:15:36.918Z,3.6
2023-03-05T01:16:37.885Z,3.5
2023-03-05T01:17:38.895Z,3.3
2023-03-05T01:18:39.921Z,3.4
2023-03-05T01:19:40.895Z,3.4
2023-03-05T01:20:42.314Z,3.4
2023-03-05T01:21:43.942Z,3.4
2023-03-05T01:22:44.895Z,3.4
2023-03-05T01:23:45.896Z,3.5
2023-03-05T01:24:46.975Z,3.5
2023-03-05T01:25:47.871Z,3.4
2023-03-05T01:26:48.891Z,3.4
2023-03-05T01:27:49.951Z,3.4
2023-03-05T01:28:50.892Z,3.4
2023-03-05T01:29:51.890Z,3.4
2023-03-05T01:30:52.931Z,3.3
2023-03-05T01:31:53.963Z,3.1
2023-03-05T01:32:54.835Z,3.1
2023-03-05T01:33:55.915Z,3
2023-03-05T01:34:56.889Z,3.1
2023-03-05T01:35:57.974Z,3
2023-03-05T01:36:58.932Z,3.1
2023-03-05T01:37:59.868Z,3
2023-03-05T01:39:00.917Z,3
2023-03-05T01:40:01.897Z,3
2023-03-05T01:41:02.891Z,3.1
2023-03-05T01:42:03.910Z,3
2023-03-05T01:43:04.914Z,3
2023-03-05T01:44:05.839Z,2.9
2023-03-05T01:45:06.914Z,2.8
2023-03-05T01:46:08.052Z,2.9
2023-03-05T01:47:08.891Z,2.9
2023-03-05T01:48:09.970Z,3
2023-03-05T01:49:10.892Z,2.9
2023-03-05T01:50:11.930Z,2.9
2023-03-05T01:51:12.952Z,2.9
2023-03-05T01:52:13.901Z,2.9
2023-03-05T01:53:14.951Z,2.9
2023-03-05T01:54:15.915Z,2.9
2023-03-05T01:55:16.910Z,2.9
2023-03-05T01:56:17.934Z,2.8
2023-03-05T01:57:18.915Z,2.7
2023-03-05T01:58:19.901Z,2.7
2023-03-05T01:59:20.886Z,2.8
2023-03-05T02:00:21.952Z,2.8
2023-03-05T02:01:22.903Z,2.7
2023-03-05T02:02:23.929Z,2.7
2023-03-05T02:06:34.961Z,2.6
2023-03-05T02:07:35.973Z,2.7
2023-03-05T02:08:36.861Z,2.7
2023-03-05T02:09:37.913Z,2.7
2023-03-05T02:10:38.925Z,2.6
2023-03-05T02:11:39.891Z,2.6
2023-03-05T02:12:40.911Z,2.6
2023-03-05T02:13:41.952Z,2.6
2023-03-05T02:14:42.893Z,2.6
2023-03-05T02:15:43.917Z,2.5
2023-03-05T02:16:44.957Z,2.5
2023-03-05T02:17:45.914Z,2.5
2023-03-05T02:18:47.034Z,2.5
2023-03-05T02:19:47.913Z,2.4
2023-03-05T02:20:48.915Z,2.4
2023-03-05T02:21:49.914Z,2.4
2023-03-05T02:22:50.979Z,2.3
2023-03-05T02:23:51.876Z,2.3
2023-03-05T02:24:52.954Z,2.4
2023-03-05T02:25:53.936Z,2.3
2023-03-05T02:26:54.903Z,2.3
2023-03-05T02:27:55.923Z,2.4
2023-03-05T02:28:56.936Z,2.4
2023-03-05T02:29:57.923Z,2.4
2023-03-05T02:30:58.939Z,2.4
2023-03-05T02:32:00.058Z,2.4
2023-03-05T02:33:00.960Z,2.5
2023-03-05T02:34:01.947Z,2.5
2023-03-05T02:35:02.946Z,2.5
2023-03-05T02:36:03.911Z,2.5
2023-03-05T02:37:04.980Z,2.5
2023-03-05T02:38:05.966Z,2.5
2023-03-05T02:39:06.977Z,2.4
2023-03-05T02:40:07.927Z,2.5
2023-03-05T02:41:08.915Z,2.4
2023-03-05T02:42:09.973Z,2.3
2023-03-05T02:43:10.935Z,2.4
2023-03-05T02:44:11.977Z,2.3
2023-03-05T02:45:12.935Z,2.3
2023-03-05T02:46:13.927Z,2.3
2023-03-05T02:47:14.935Z,2.3
2023-03-05T02:48:15.942Z,2.2
2023-03-05T02:49:16.997Z,2.1
2023-03-05T02:50:17.936Z,2.1
2023-03-05T02:51:18.916Z,2
2023-03-05T02:52:19.915Z,2
2023-03-05T02:53:20.963Z,1.9
2023-03-05T02:54:21.977Z,1.8
2023-03-05T02:55:22.957Z,1.7
2023-03-05T02:56:23.927Z,1.7
2023-03-05T02:57:24.923Z,1.7
2023-03-05T02:58:25.939Z,1.7
2023-03-05T02:59:27.035Z,1.9
2023-03-05T03:00:27.936Z,1.9
2023-03-05T03:01:28.979Z,1.9
2023-03-05T03:02:29.943Z,2
2023-03-05T03:03:30.938Z,1.8
2023-03-05T03:04:31.955Z,1.8
2023-03-05T03:05:32.969Z,1.7
2023-03-05T03:06:33.942Z,1.7
2023-03-05T03:07:34.979Z,1.6
2023-03-05T03:08:35.961Z,1.6
2023-03-05T03:09:36.997Z,1.6
2023-03-05T03:10:37.955Z,1.7
2023-03-05T03:11:38.909Z,1.8
2023-03-05T03:12:39.978Z,1.9
2023-03-05T03:13:40.940Z,1.9
2023-03-05T03:14:41.935Z,2
2023-03-05T03:15:42.958Z,2
2023-03-05T03:16:43.971Z,1.9
2023-03-05T03:17:44.978Z,2
2023-03-05T03:18:46.003Z,2
2023-03-05T03:19:46.996Z,2
2023-03-05T03:20:47.941Z,2.1
2023-03-05T03:21:48.959Z,2.1
2023-03-05T03:22:50.004Z,2.1
2023-03-05T03:23:50.961Z,2
2023-03-05T03:24:51.986Z,1.9
2023-03-05T03:25:52.963Z,1.9
2023-03-05T03:26:53.942Z,1.9
2023-03-05T03:27:54.981Z,1.9
2023-03-05T03:28:55.990Z,2
2023-03-05T03:29:56.945Z,2
2023-03-05T03:30:58.017Z,2.1
2023-03-05T03:31:58.991Z,2.2
2023-03-05T03:32:59.972Z,2.1
2023-03-05T03:34:01.001Z,2.1
2023-03-05T03:35:02.004Z,2.1
2023-03-05T03:36:02.960Z,2.1
2023-03-05T03:37:03.965Z,2.1
2023-03-05T03:38:05.006Z,2.1
2023-03-05T03:39:06.012Z,2.1
2023-03-05T03:40:07.121Z,2.1
2023-03-05T03:41:07.980Z,2.1
2023-03-05T03:42:09.024Z,2
2023-03-05T03:43:10.027Z,2.1
2023-03-05T03:44:10.942Z,2.1
2023-03-05T03:45:12.025Z,2.1
2023-03-05T03:46:13.122Z,2.1
2023-03-05T03:47:14.030Z,2.2
2023-03-05T03:48:15.002Z,2.2
2023-03-05T03:49:15.964Z,2.1
2023-03-05T03:50:16.941Z,2.1
2023-03-05T03:51:17.942Z,2.1
2023-03-05T03:52:18.962Z,2.1
2023-03-05T03:53:19.961Z,2.1
2023-03-05T03:54:21.009Z,2.1
2023-03-05T03:55:21.962Z,2.1
2023-03-05T03:56:22.961Z,2.1
2023-03-05T03:57:23.982Z,2
2023-03-05T03:58:24.962Z,1.9
2023-03-05T03:59:25.950Z,1.9
2023-03-05T04:00:27.001Z,1.9
2023-03-05T04:01:28.021Z,1.9
2023-03-05T04:02:29.041Z,1.9
2023-03-05T04:03:29.981Z,1.9
2023-03-05T04:04:31.012Z,1.9
2023-03-05T04:05:31.947Z,1.8
2023-03-05T04:06:33.051Z,1.8
2023-03-05T04:07:33.982Z,1.9
2023-03-05T04:08:34.983Z,1.9
2023-03-05T04:09:36.025Z,1.9
2023-03-05T04:10:37.006Z,1.9
2023-03-05T04:11:37.987Z,1.9
2023-03-05T04:12:39.013Z,2
2023-03-05T04:13:39.972Z,1.9
2023-03-05T04:14:40.983Z,1.9
2023-03-05T04:15:41.978Z,1.9
2023-03-05T04:16:43.004Z,1.9
2023-03-05T04:17:43.963Z,1.9
2023-03-05T04:18:44.962Z,2
2023-03-05T04:19:45.988Z,1.8
2023-03-05T04:20:46.985Z,1.8
2023-03-05T04:21:48.029Z,1.8
2023-03-05T04:22:48.983Z,1.8
2023-03-05T04:23:49.974Z,1.8
2023-03-05T04:24:51.033Z,1.8
2023-03-05T04:25:51.974Z,1.7
2023-03-05T04:26:53.000Z,1.7
2023-03-05T04:27:53.981Z,1.7
2023-03-05T04:28:54.991Z,1.7
2023-03-05T04:29:55.988Z,1.7
2023-03-05T04:30:57.046Z,1.8
2023-03-05T04:31:58.019Z,1.7
2023-03-05T04:32:58.979Z,1.7
2023-03-05T04:33:59.972Z,1.8
2023-03-05T04:35:01.008Z,1.8
2023-03-05T04:36:01.967Z,1.8
2023-03-05T04:37:02.960Z,1.8
2023-03-05T04:38:03.957Z,1.8
2023-03-05T04:39:04.961Z,1.8
2023-03-05T04:40:06.079Z,1.9
2023-03-05T04:41:07.059Z,1.8
2023-03-05T04:42:07.997Z,1.9
2023-03-05T04:43:09.050Z,1.9
2023-03-05T04:44:09.977Z,1.9
2023-03-05T04:45:11.018Z,1.9
2023-03-05T04:46:12.030Z,1.8
2023-03-05T04:47:12.995Z,1.7
2023-03-05T04:48:13.993Z,1.8
2023-03-05T04:49:14.977Z,1.8
2023-03-05T04:50:16.014Z,1.8
2023-03-05T04:51:16.993Z,1.7
2023-03-05T04:52:17.973Z,1.7
2023-03-05T04:53:19.036Z,1.7
2023-03-05T04:54:19.963Z,1.8
2023-03-05T04:55:21.060Z,1.7
2023-03-05T04:56:22.040Z,1.7
2023-03-05T04:57:24.031Z,1.6
2023-03-05T04:58:23.993Z,1.6
2023-03-05T04:59:24.976Z,1.6
2023-03-05T05:00:26.054Z,1.5
2023-03-05T05:01:27.030Z,1.5
2023-03-05T05:02:28.079Z,1.6
2023-03-05T05:03:29.059Z,1.6
2023-03-05T05:04:29.973Z,1.6
2023-03-05T05:05:30.996Z,1.6
2023-03-05T05:06:31.975Z,1.6
2023-03-05T05:07:32.974Z,1.5
2023-03-05T05:08:34.060Z,1.4
2023-03-05T05:09:34.945Z,1.3
2023-03-05T05:10:36.019Z,1.3
2023-03-05T05:11:36.988Z,1.4
2023-03-05T05:12:38.039Z,1.4
2023-03-05T05:13:38.996Z,1.5
2023-03-05T05:14:39.999Z,1.6
2023-03-05T05:15:41.006Z,1.7
2023-03-05T05:16:41.997Z,1.7
2023-03-05T05:17:43.038Z,1.8
2023-03-05T05:18:43.995Z,1.9
2023-03-05T05:19:44.968Z,1.8
2023-03-05T05:20:45.997Z,1.8
2023-03-05T05:21:47.029Z,1.9
2023-03-05T05:22:48.055Z,1.9
2023-03-05T05:23:48.976Z,1.8
2023-03-05T05:24:50.024Z,1.8
2023-03-05T05:25:50.970Z,1.8
2023-03-05T05:26:52.002Z,1.9
2023-03-05T05:27:53.035Z,1.9
2023-03-05T05:28:54.036Z,1.8
2023-03-05T05:29:55.023Z,1.9
2023-03-05T05:30:55.996Z,2
2023-03-05T05:31:57.010Z,2.1
2023-03-05T05:32:57.977Z,2
2023-03-05T05:33:58.984Z,1.9
2023-03-05T05:35:00.016Z,1.9
2023-03-05T05:36:00.993Z,2
2023-03-05T05:37:02.049Z,2
2023-03-05T05:38:03.020Z,2
2023-03-05T05:39:04.045Z,2.1
2023-03-05T05:40:05.073Z,2.2
2023-03-05T05:41:06.015Z,2.2
2023-03-05T05:42:07.084Z,2.1
2023-03-05T05:43:08.003Z,2.1
2023-03-05T05:44:08.998Z,2.1
2023-03-05T05:45:10.116Z,2.2
2023-03-05T05:46:11.121Z,2.1
2023-03-05T05:47:12.023Z,2
2023-03-05T05:48:13.033Z,1.9
2023-03-05T05:49:14.024Z,1.9
2023-03-05T05:50:15.002Z,1.9
2023-03-05T05:51:15.983Z,1.9
2023-03-05T05:52:17.041Z,1.9
2023-03-05T05:53:18.003Z,1.9
2023-03-05T05:54:19.051Z,1.9
2023-03-05T05:55:20.008Z,1.8
2023-03-05T05:56:21.046Z,1.9
2023-03-05T05:57:22.024Z,1.9
2023-03-05T05:58:23.011Z,1.8
2023-03-05T05:59:24.042Z,1.7
2023-03-05T06:00:25.040Z,1.7
2023-03-05T06:01:26.005Z,1.5
2023-03-05T06:02:27.048Z,1.4
2023-03-05T06:03:28.022Z,1.4
2023-03-05T06:04:29.013Z,1.4
2023-03-05T06:05:30.069Z,1.5
2023-03-05T06:06:30.999Z,1.4
2023-03-05T06:07:32.028Z,1.3
2023-03-05T06:08:33.001Z,1.1
2023-03-05T06:09:34.027Z,1
2023-03-05T06:10:35.047Z,1
2023-03-05T06:11:36.064Z,1
2023-03-05T06:12:37.016Z,1
2023-03-05T06:13:38.027Z,0.9
2023-03-05T06:14:39.025Z,0.9
2023-03-05T06:15:40.067Z,0.9
2023-03-05T06:16:41.048Z,0.9
2023-03-05T06:17:42.054Z,0.8
2023-03-05T06:18:43.028Z,0.8
2023-03-05T06:19:44.088Z,0.7
2023-03-05T06:20:45.001Z,0.7
2023-03-05T06:21:46.110Z,0.8
2023-03-05T06:22:47.055Z,0.8
2023-03-05T06:23:48.022Z,0.8
2023-03-05T06:24:49.047Z,0.8
2023-03-05T06:25:50.044Z,0.9
2023-03-05T06:26:51.055Z,0.9
2023-03-05T06:27:52.013Z,0.9
2023-03-05T06:28:53.035Z,0.9
2023-03-05T06:29:54.071Z,1
2023-03-05T06:30:55.096Z,1.1
2023-03-05T06:31:56.036Z,1.1
2023-03-05T06:32:57.059Z,1.1
2023-03-05T06:33:58.021Z,1.1
2023-03-05T06:34:59.065Z,1.1
2023-03-05T06:36:00.105Z,1.1
2023-03-05T06:37:01.049Z,1
2023-03-05T06:38:02.040Z,1
2023-03-05T06:39:03.066Z,0.8
2023-03-05T06:40:04.026Z,0.8
2023-03-05T06:41:05.049Z,0.8
2023-03-05T06:42:06.046Z,0.8
2023-03-05T06:43:07.142Z,0.8
2023-03-05T06:44:08.077Z,0.8
2023-03-05T06:45:09.102Z,0.9
2023-03-05T06:46:10.089Z,0.8
2023-03-05T06:47:11.043Z,0.9
2023-03-05T06:48:12.023Z,0.9
2023-03-05T06:49:13.033Z,0.9
2023-03-05T06:50:14.067Z,0.9
2023-03-05T06:51:15.081Z,0.8
2023-03-05T06:52:16.044Z,0.7
2023-03-05T06:53:17.083Z,0.7
2023-03-05T06:54:18.046Z,0.6
2023-03-05T06:55:19.049Z,0.7
2023-03-05T06:56:20.068Z,0.5
2023-03-05T06:57:21.068Z,0.5
2023-03-05T06:58:22.052Z,0.5
2023-03-05T06:59:23.080Z,0.7
2023-03-05T07:00:24.105Z,0.8
2023-03-05T07:01:25.054Z,0.7
2023-03-05T07:02:26.079Z,0.7
2023-03-05T07:03:27.046Z,0.8
2023-03-05T07:04:28.080Z,0.8
2023-03-05T07:05:28.992Z,1
2023-03-05T07:06:30.021Z,1
2023-03-05T07:07:31.118Z,0.9
2023-03-05T07:08:32.019Z,1
2023-03-05T07:09:33.058Z,1
2023-03-05T07:10:34.060Z,1.1
2023-03-05T07:11:35.040Z,1.1
2023-03-05T07:12:36.096Z,1.2
2023-03-05T07:13:37.025Z,1.2
2023-03-05T07:14:38.063Z,1.3
2023-03-05T07:15:39.135Z,1.4
2023-03-05T07:16:40.148Z,1.5
2023-03-05T07:17:41.046Z,1.6
2023-03-05T07:18:42.044Z,1.5
2023-03-05T07:19:43.042Z,1.5
2023-03-05T07:20:44.120Z,1.5
2023-03-05T07:21:45.042Z,1.5
2023-03-05T07:22:46.076Z,1.4
2023-03-05T07:23:47.125Z,1.4
2023-03-05T07:24:48.055Z,1.5
2023-03-05T07:25:49.044Z,1.6
2023-03-05T07:26:50.100Z,1.5
2023-03-05T07:27:51.084Z,1.3
2023-03-05T07:28:52.011Z,1.2
2023-03-05T07:29:53.068Z,1.2
2023-03-05T07:30:54.085Z,1.2
2023-03-05T07:31:55.066Z,1.1
2023-03-05T07:32:56.060Z,1.2
2023-03-05T07:33:57.049Z,1.2
2023-03-05T07:34:58.092Z,1.1
2023-03-05T07:35:59.151Z,1.1
2023-03-05T07:37:00.067Z,1
2023-03-05T07:38:01.145Z,1
2023-03-05T07:39:02.110Z,1.1
2023-03-05T07:40:03.107Z,1.1
2023-03-05T07:41:04.041Z,1.1
2023-03-05T07:42:05.093Z,1.2
2023-03-05T07:43:06.067Z,1.1
2023-03-05T07:44:07.126Z,1.2
2023-03-05T07:45:08.075Z,1.1
2023-03-05T07:46:09.076Z,1.1
2023-03-05T07:47:09.993Z,0.9
2023-03-05T07:48:11.047Z,0.9
2023-03-05T07:49:12.104Z,0.9
2023-03-05T07:50:13.066Z,1
2023-03-05T07:51:14.065Z,1.1
2023-03-05T07:52:15.085Z,1.2
2023-03-05T07:53:16.103Z,1.2
2023-03-05T07:54:17.040Z,1.1
2023-03-05T07:55:18.102Z,1
2023-03-05T07:56:19.103Z,0.7
2023-03-05T07:57:20.062Z,0.6
2023-03-05T07:58:21.115Z,0.6
2023-03-05T07:59:22.040Z,0.8
2023-03-05T08:00:23.102Z,0.8
2023-03-05T08:01:24.105Z,0.8
2023-03-05T08:02:25.078Z,0.8
2023-03-05T08:03:26.084Z,0.6
2023-03-05T08:04:27.200Z,0.6
2023-03-05T08:05:28.083Z,0.7
2023-03-05T08:06:29.079Z,0.8
2023-03-05T08:07:30.049Z,0.8
2023-03-05T08:08:31.089Z,0.7
2023-03-05T08:09:32.090Z,0.7
2023-03-05T08:10:33.062Z,0.6
2023-03-05T08:11:34.055Z,0.4
2023-03-05T08:12:35.082Z,0.2
2023-03-05T08:13:36.088Z,0.1
2023-03-05T08:14:37.104Z,-0.1
2023-03-05T08:15:38.128Z,0
2023-03-05T08:16:39.028Z,-0.2
2023-03-05T08:17:40.031Z,-0.1
2023-03-05T08:18:41.080Z,-0.1
2023-03-05T08:19:42.072Z,-0.3
2023-03-05T08:20:43.084Z,-0.4
2023-03-05T08:21:44.285Z,-0.5
2023-03-05T08:22:45.062Z,-0.5
2023-03-05T08:23:46.120Z,-0.2
2023-03-05T08:24:47.163Z,0
2023-03-05T08:25:48.063Z,0.3
2023-03-05T08:26:49.033Z,0.5
2023-03-05T08:27:50.061Z,0.6
2023-03-05T08:28:51.115Z,0.6
2023-03-05T08:29:52.082Z,0.3
2023-03-05T08:30:53.096Z,0.1
2023-03-05T08:31:54.062Z,-0.1
2023-03-05T08:32:55.123Z,0
2023-03-05T08:33:56.062Z,0
2023-03-05T08:34:57.079Z,-0.1
2023-03-05T08:35:58.168Z,-0.2
2023-03-05T08:36:59.073Z,-0.1
2023-03-05T08:38:00.136Z,0.1
2023-03-05T08:39:01.111Z,0.4
2023-03-05T08:40:02.125Z,0.4
2023-03-05T08:41:03.102Z,0.4
2023-03-05T08:42:04.111Z,0.4
2023-03-05T08:43:05.142Z,0.2
2023-03-05T08:44:06.166Z,0.3
2023-03-05T08:45:07.121Z,0.4
2023-03-05T08:46:11.197Z,0.6
2023-03-05T08:47:12.086Z,0.8
2023-03-05T08:48:13.083Z,0.8
2023-03-05T08:49:14.101Z,0.7
2023-03-05T08:50:15.130Z,0.5
2023-03-05T08:51:16.107Z,0.6
2023-03-05T08:52:17.082Z,0.6
2023-03-05T08:53:18.102Z,0.6
2023-03-05T08:54:19.104Z,0.6
2023-03-05T08:55:20.153Z,0.6
2023-03-05T08:56:21.094Z,0.7
2023-03-05T08:57:22.147Z,0.8
2023-03-05T08:58:23.070Z,0.9
2023-03-05T08:59:24.176Z,1
2023-03-05T09:00:25.089Z,0.8
2023-03-05T09:01:26.119Z,0.7
2023-03-05T09:02:27.175Z,0.7
2023-03-05T09:03:28.112Z,0.7
2023-03-05T09:04:29.148Z,0.8
2023-03-05T09:05:30.120Z,0.9
2023-03-05T09:06:31.098Z,1
2023-03-05T09:07:32.163Z,1
2023-03-05T09:08:33.138Z,1
2023-03-05T09:09:34.094Z,1.1
2023-03-05T09:10:35.111Z,1.1
2023-03-05T09:11:36.123Z,1
2023-03-05T09:12:37.164Z,0.9
2023-03-05T09:13:38.122Z,0.8
2023-03-05T09:14:39.134Z,0.7
2023-03-05T09:15:40.144Z,0.7
2023-03-05T09:16:41.202Z,0.6
2023-03-05T09:17:42.135Z,0.7
2023-03-05T09:18:43.114Z,0.7
2023-03-05T09:19:44.406Z,0.9
2023-03-05T09:20:45.143Z,0.9
2023-03-05T09:21:46.061Z,1
2023-03-05T09:22:47.142Z,0.9
2023-03-05T09:23:48.139Z,0.8
2023-03-05T09:24:49.163Z,0.8
2023-03-05T09:25:50.123Z,0.9
2023-03-05T09:26:51.171Z,0.8
2023-03-05T09:27:52.122Z,0.6
2023-03-05T09:28:53.124Z,0.5
2023-03-05T09:29:54.214Z,0.6
2023-03-05T09:30:55.266Z,0.7
2023-03-05T09:31:56.166Z,0.9
2023-03-05T09:32:57.160Z,1
2023-03-05T09:33:58.162Z,1
2023-03-05T09:34:59.122Z,0.9
2023-03-05T09:36:00.206Z,0.8
2023-03-05T09:37:01.105Z,0.9
2023-03-05T09:38:02.122Z,0.9
2023-03-05T09:39:03.121Z,0.7
2023-03-05T09:40:04.189Z,0.5
2023-03-05T09:41:05.136Z,0.3
2023-03-05T09:42:06.105Z,0.2
2023-03-05T09:43:07.184Z,0.1
2023-03-05T09:44:08.103Z,0.1
2023-03-05T09:45:09.128Z,0.2
2023-03-05T09:46:10.232Z,0.2
2023-03-05T09:47:11.217Z,0.5
2023-03-05T09:48:12.122Z,0.6
2023-03-05T09:49:13.129Z,0.8
2023-03-05T09:50:14.181Z,1.1
2023-03-05T09:51:15.120Z,1.3
2023-03-05T09:52:16.160Z,1.4
2023-03-05T09:53:17.142Z,1.5
2023-03-05T09:54:18.141Z,1.5
2023-03-05T09:55:19.161Z,1.5
2023-03-05T09:56:20.161Z,1.6
2023-03-05T09:57:21.092Z,1.4
2023-03-05T09:58:22.150Z,1.5
2023-03-05T09:59:23.146Z,1.7
2023-03-05T10:00:24.168Z,1.7
2023-03-05T10:01:25.125Z,1.7
2023-03-05T10:02:26.135Z,1.8
2023-03-05T10:03:27.271Z,1.7
2023-03-05T10:04:28.152Z,1.8
2023-03-05T10:05:29.103Z,1.9
2023-03-05T10:06:30.107Z,2
2023-03-05T10:07:31.224Z,2
2023-03-05T10:08:32.183Z,2.1
2023-03-05T10:09:33.169Z,2
2023-03-05T10:10:34.123Z,1.8
2023-03-05T10:11:35.104Z,1.8
2023-03-05T10:12:36.146Z,1.9
2023-03-05T10:13:37.133Z,2
2023-03-05T10:14:38.163Z,2
2023-03-05T10:15:39.166Z,2.1
2023-03-05T10:16:40.165Z,2.1
2023-03-05T10:17:41.181Z,1.9
2023-03-05T10:18:42.145Z,2
2023-03-05T10:19:43.149Z,2
2023-03-05T10:20:44.465Z,2
2023-03-05T10:21:46.203Z,1.9
2023-03-05T10:22:47.203Z,2
2023-03-05T10:23:48.145Z,2
2023-03-05T10:24:49.143Z,1.9
2023-03-05T10:25:50.127Z,2
2023-03-05T10:26:51.183Z,2.2
2023-03-05T10:27:54.148Z,2.4
2023-03-05T10:28:53.144Z,2.6
2023-03-05T10:29:54.172Z,2.9
2023-03-05T10:30:55.173Z,3.2
2023-03-05T10:31:56.204Z,3.4
2023-03-05T10:32:57.182Z,3.5
2023-03-05T10:33:58.101Z,3.4
2023-03-05T10:34:59.112Z,3.4
2023-03-05T10:36:00.128Z,3.2
2023-03-05T10:37:01.183Z,3.1
2023-03-05T10:38:02.171Z,3
2023-03-05T10:39:03.140Z,3
2023-03-05T10:40:04.163Z,2.8
2023-03-05T10:41:05.165Z,2.6
2023-03-05T10:42:06.210Z,2.6
2023-03-05T10:43:07.139Z,2.7
2023-03-05T10:44:08.099Z,2.5
2023-03-05T10:45:09.187Z,2.6
2023-03-05T10:46:10.189Z,2.7
2023-03-05T10:47:11.187Z,2.6
2023-03-05T10:48:12.122Z,2.6
2023-03-05T10:49:13.163Z,2.7
2023-03-05T10:50:14.148Z,2.7
2023-03-05T10:51:15.211Z,2.6
2023-03-05T10:52:18.419Z,2.4
2023-03-05T10:53:17.170Z,2.2
2023-03-05T10:54:18.167Z,2.2
2023-03-05T10:55:19.185Z,2.2
2023-03-05T10:56:20.183Z,2.3
2023-03-05T10:57:21.169Z,2.3
2023-03-05T10:58:24.581Z,2.4
2023-03-05T10:59:23.104Z,2.6
2023-03-05T11:00:24.184Z,2.8
2023-03-05T11:01:25.289Z,2.9
2023-03-05T11:02:26.204Z,2.9
2023-03-05T11:03:27.170Z,2.9
2023-03-05T11:04:28.186Z,2.7
2023-03-05T11:05:29.163Z,2.5
2023-03-05T11:06:30.163Z,2.4
2023-03-05T11:07:31.159Z,2.4
2023-03-05T11:08:32.421Z,2.4
2023-03-05T11:09:33.190Z,2.4
2023-03-05T11:10:34.129Z,2.3
2023-03-05T11:11:35.143Z,1.9
2023-03-05T11:12:36.126Z,1.8
2023-03-05T11:13:37.219Z,1.8
2023-03-05T11:14:38.179Z,1.9
2023-03-05T11:15:39.210Z,1.8
2023-03-05T11:16:40.262Z,1.9
2023-03-05T11:17:41.115Z,1.9
2023-03-05T11:18:42.197Z,1.9
2023-03-05T11:19:43.150Z,1.9
2023-03-05T11:20:44.570Z,1.9
2023-03-05T11:21:45.164Z,1.8
2023-03-05T11:22:46.180Z,1.6
2023-03-05T11:23:47.190Z,1.6
2023-03-05T11:24:48.162Z,1.6
2023-03-05T11:25:49.188Z,1.8
2023-03-05T11:26:50.164Z,1.9
2023-03-05T11:27:54.831Z,2.1
2023-03-05T11:28:55.155Z,2
2023-03-05T11:29:56.174Z,1.9
2023-03-05T11:30:57.258Z,2
2023-03-05T11:31:58.227Z,2.1
2023-03-05T11:32:59.138Z,2.1
2023-03-05T11:34:00.170Z,2.2
2023-03-05T11:35:01.219Z,2.3
2023-03-05T11:36:03.217Z,2.5
2023-03-05T11:37:04.162Z,2.6
2023-03-05T11:38:05.185Z,2.6
2023-03-05T11:39:06.224Z,2.4
2023-03-05T11:40:07.300Z,2.4
2023-03-05T11:41:08.169Z,2.3
2023-03-05T11:42:09.160Z,2.2
2023-03-05T11:43:10.162Z,2.1
2023-03-05T11:44:13.072Z,2.1
2023-03-05T11:45:12.228Z,2.2
2023-03-05T11:46:13.206Z,2.4
2023-03-05T11:47:14.202Z,2.5
2023-03-05T11:48:15.177Z,2.6
2023-03-05T11:49:16.179Z,2.7
2023-03-05T11:50:17.283Z,2.7
2023-03-05T11:51:18.198Z,2.8
2023-03-05T11:52:19.178Z,3
2023-03-05T11:53:20.183Z,3
2023-03-05T11:54:21.180Z,3.1
2023-03-05T11:55:22.166Z,3.2
2023-03-05T11:56:23.185Z,3.2
2023-03-05T11:57:24.179Z,3.1
2023-03-05T11:58:25.182Z,3.1
2023-03-05T11:59:26.181Z,3
2023-03-05T12:00:27.202Z,2.9
2023-03-05T12:01:28.202Z,2.8
2023-03-05T12:02:29.194Z,2.8
2023-03-05T12:03:30.260Z,2.7
2023-03-05T12:04:31.190Z,2.5
2023-03-05T12:05:32.224Z,2.4
2023-03-05T12:06:33.180Z,2.3
2023-03-05T12:07:34.154Z,2.3
2023-03-05T12:08:35.206Z,2.2
2023-03-05T12:09:36.137Z,2.4
2023-03-05T12:10:37.159Z,2.4
2023-03-05T12:11:38.166Z,2.5
2023-03-05T12:12:39.517Z,2.6
2023-03-05T12:13:42.421Z,2.6
2023-03-05T12:14:41.219Z,2.5
2023-03-05T12:15:42.280Z,2.4
2023-03-05T12:16:43.224Z,2.4
2023-03-05T12:17:44.715Z,2.6
2023-03-05T12:18:46.216Z,2.7
2023-03-05T12:19:47.207Z,2.8
2023-03-05T12:20:48.859Z,2.8
2023-03-05T12:21:49.213Z,2.7
2023-03-05T12:22:50.193Z,2.7
2023-03-05T12:23:51.162Z,2.8
2023-03-05T12:24:52.162Z,2.9
2023-03-05T12:25:53.225Z,3
2023-03-05T12:26:54.265Z,3.1
2023-03-05T12:27:55.180Z,3.2
2023-03-05T12:28:56.212Z,3.2
2023-03-05T12:29:57.266Z,3.3
2023-03-05T12:30:58.233Z,3.4
2023-03-05T12:31:59.237Z,3.6
2023-03-05T12:33:00.233Z,3.6
2023-03-05T12:34:01.236Z,3.5
2023-03-05T12:35:02.251Z,3.4
2023-03-05T12:36:03.240Z,3.4
2023-03-05T12:37:04.259Z,3.4
2023-03-05T12:38:17.342Z,3.5
2023-03-05T12:39:06.206Z,3.4
2023-03-05T12:40:07.299Z,3.2
2023-03-05T12:41:08.207Z,3
2023-03-05T12:42:09.241Z,2.7
2023-03-05T12:43:10.182Z,2.6
2023-03-05T12:44:11.250Z,2.4
2023-03-05T12:45:12.215Z,2
2023-03-05T12:46:13.240Z,2
2023-03-05T12:47:14.248Z,2.2
2023-03-05T12:48:15.299Z,2
2023-03-05T12:49:16.237Z,2
2023-03-05T12:50:17.255Z,2
2023-03-05T12:51:18.258Z,2.1
2023-03-05T12:52:19.230Z,2.1
2023-03-05T12:53:20.246Z,2.2
2023-03-05T12:54:21.188Z,2.1
2023-03-05T12:55:22.267Z,2
2023-03-05T12:56:23.221Z,2
2023-03-05T12:57:24.185Z,2.2
2023-03-05T12:58:25.209Z,2.4
2023-03-05T12:59:26.229Z,2.6
2023-03-05T13:00:27.282Z,2.4
2023-03-05T13:01:28.288Z,2.2
2023-03-05T13:02:29.230Z,2.2
2023-03-05T13:03:30.307Z,2.4
2023-03-05T13:04:31.208Z,2.6
2023-03-05T13:05:32.232Z,2.3
2023-03-05T13:06:33.216Z,2.1
2023-03-05T13:07:34.265Z,2
2023-03-05T13:08:35.221Z,1.9
2023-03-05T13:09:36.292Z,1.7
2023-03-05T13:10:37.272Z,1.5
2023-03-05T13:11:38.228Z,1.2
2023-03-05T13:12:39.233Z,1.1
2023-03-05T13:13:40.287Z,1.1
2023-03-05T13:14:51.200Z,1
2023-03-05T13:15:52.222Z,0.7
2023-03-05T13:16:53.254Z,0.4
2023-03-05T13:17:54.221Z,0.4
2023-03-05T13:18:55.270Z,0.6
2023-03-05T13:19:56.223Z,0.7
2023-03-05T13:20:57.259Z,0.9
2023-03-05T13:21:58.221Z,0.9
2023-03-05T13:22:59.223Z,0.9
2023-03-05T13:24:00.216Z,1
2023-03-05T13:25:01.246Z,1.1
2023-03-05T13:26:02.207Z,1.2
2023-03-05T13:27:03.179Z,1.1
2023-03-05T13:28:04.221Z,1
2023-03-05T13:29:05.244Z,0.9
2023-03-05T13:30:06.204Z,0.7
2023-03-05T13:31:07.333Z,0.6
2023-03-05T13:32:08.215Z,0.6
2023-03-05T13:33:09.215Z,0.6
2023-03-05T13:34:10.268Z,0.6
2023-03-05T13:35:11.222Z,0.7
2023-03-05T13:36:12.235Z,0.6
2023-03-05T13:37:13.201Z,0.7
2023-03-05T13:38:14.203Z,0.6
2023-03-05T13:39:15.195Z,0.7
2023-03-05T13:40:16.794Z,0.7
2023-03-05T13:41:17.253Z,0.6
2023-03-05T13:42:18.245Z,0.5
2023-03-05T13:43:19.252Z,0.3
2023-03-05T13:44:20.291Z,0.4
2023-03-05T13:45:21.236Z,0.6
2023-03-05T13:46:22.259Z,0.7
2023-03-05T13:47:23.288Z,0.9
2023-03-05T13:48:24.220Z,1.1
2023-03-05T13:49:25.332Z,1.3
2023-03-05T13:50:26.302Z,1.1
2023-03-05T13:51:27.241Z,1
2023-03-05T13:52:28.237Z,1.2
2023-03-05T13:53:29.248Z,1.3
2023-03-05T13:54:30.229Z,1.2
2023-03-05T13:55:31.234Z,1
2023-03-05T13:56:32.221Z,1
2023-03-05T13:57:33.217Z,1
2023-03-05T13:58:34.238Z,1.1
2023-03-05T13:59:35.230Z,1.2
2023-03-05T14:00:36.256Z,1.4
2023-03-05T14:01:37.241Z,1.5
2023-03-05T14:03:39.219Z,1.3
2023-03-05T14:04:41.329Z,1.1
2023-03-05T14:05:42.274Z,0.9
2023-03-05T14:06:43.236Z,1.1
2023-03-05T14:07:44.250Z,1.1
2023-03-05T14:08:45.242Z,1.1
2023-03-05T14:09:46.229Z,1.2